Terminal Aerodrome Forecast
Issued by NWS

Home | Current Version | Previous Version | Text Only | Print | Product List | Glossary Off
Versions: 1 2 3 4 5 6 7 8 9 10 11 12 13 14 15

000
FTUS45 KGGW 210528
TAFSDY
TAF
KSDY 210528Z 2106/2206 VRB06KT P6SM SCT120
     FM211300 28020G30KT P6SM FEW090
     FM220100 30009KT P6SM FEW120 SCT200=

USA.gov is the U.S. government's official web portal to all federal, state and local government web resources and services.